Terminal Aerodrome Forecast
Issued by NWS

Home | Current Version | Previous Version | Text Only | Print | Product List | Glossary Off
Versions: 1 2 3 4 5 6 7 8 9 10 11 12 13 14 15 16 17 18 19 20 21 22 23 24 25

000
FTUS43 KICT 132339
TAFCNU
TAF
KCNU 132339Z 1400/1424 12007KT P6SM SCT060
     FM140500 15004KT P6SM SCT200
     FM140900 15004KT 3SM BR BKN003
     FM141200 15004KT 5SM BR BKN005
     FM141400 15005KT P6SM BKN015
     FM141700 16007KT P6SM SCT035=

USA.gov is the U.S. government's official web portal to all federal, state and local government web resources and services.